sensor_id;sensor_type;location;lat;lon;timestamp;pressure;altitude;pressure_sealevel;temperature;humidity
14689;BME280;7432;48.728;9.154;2023-04-24T00:00:49;95570.22;;;10.42;96.84
14689;BME280;7432;48.728;9.154;2023-04-24T00:03:16;95566.97;;;10.55;95.00
14689;BME280;7432;48.728;9.154;2023-04-24T00:05:46;95573.13;;;10.54;94.94
14689;BME280;7432;48.728;9.154;2023-04-24T00:08:14;95578.88;;;10.56;96.39
14689;BME280;7432;48.728;9.154;2023-04-24T00:10:41;95585.28;;;10.60;95.00
14689;BME280;7432;48.728;9.154;2023-04-24T00:13:07;95586.84;;;10.61;94.18
14689;BME280;7432;48.728;9.154;2023-04-24T00:15:34;95579.78;;;10.48;95.56
14689;BME280;7432;48.728;9.154;2023-04-24T00:18:00;95579.47;;;10.58;94.44
14689;BME280;7432;48.728;9.154;2023-04-24T00:20:27;95585.28;;;10.60;93.34
14689;BME280;7432;48.728;9.154;2023-04-24T00:22:54;95581.91;;;10.45;95.30
14689;BME280;7432;48.728;9.154;2023-04-24T00:25:22;95592.56;;;10.42;95.72
14689;BME280;7432;48.728;9.154;2023-04-24T00:27:48;95597.38;;;10.45;95.19
14689;BME280;7432;48.728;9.154;2023-04-24T00:30:15;95593.28;;;10.50;95.29
14689;BME280;7432;48.728;9.154;2023-04-24T00:32:41;95600.72;;;10.60;94.63
14689;BME280;7432;48.728;9.154;2023-04-24T00:35:08;95601.69;;;10.59;94.17
14689;BME280;7432;48.728;9.154;2023-04-24T00:37:36;95589.06;;;10.64;92.79
14689;BME280;7432;48.728;9.154;2023-04-24T00:40:03;95589.25;;;10.62;93.71
14689;BME280;7432;48.728;9.154;2023-04-24T00:42:31;95584.81;;;10.56;94.04
14689;BME280;7432;48.728;9.154;2023-04-24T00:44:57;95584.63;;;10.58;94.62
14689;BME280;7432;48.728;9.154;2023-04-24T00:47:25;95592.44;;;10.64;93.19
14689;BME280;7432;48.728;9.154;2023-04-24T00:49:51;95584.88;;;10.63;92.16
14689;BME280;7432;48.728;9.154;2023-04-24T00:52:17;95579.00;;;10.69;92.51
14689;BME280;7432;48.728;9.154;2023-04-24T00:54:44;95576.25;;;10.70;92.86
14689;BME280;7432;48.728;9.154;2023-04-24T00:57:11;95574.56;;;10.63;94.67
14689;BME280;7432;48.728;9.154;2023-04-24T00:59:40;95576.03;;;10.65;94.62
14689;BME280;7432;48.728;9.154;2023-04-24T01:02:07;95568.34;;;10.72;94.56
14689;BME280;7432;48.728;9.154;2023-04-24T01:04:34;95567.97;;;10.75;93.66
14689;BME280;7432;48.728;9.154;2023-04-24T01:07:01;95568.34;;;10.72;93.28
14689;BME280;7432;48.728;9.154;2023-04-24T01:09:28;95565.41;;;10.75;92.96
14689;BME280;7432;48.728;9.154;2023-04-24T01:11:54;95561.59;;;10.71;93.48
14689;BME280;7432;48.728;9.154;2023-04-24T01:14:22;95565.75;;;10.72;93.28
14689;BME280;7432;48.728;9.154;2023-04-24T01:16:50;95563.63;;;10.76;93.08
14689;BME280;7432;48.728;9.154;2023-04-24T01:19:17;95560.19;;;10.68;93.64
14689;BME280;7432;48.728;9.154;2023-04-24T01:21:47;95556.38;;;10.64;94.65
14689;BME280;7432;48.728;9.154;2023-04-24T01:24:15;95554.63;;;10.65;95.34
14689;BME280;7432;48.728;9.154;2023-04-24T01:26:41;95556.44;;;10.71;94.29
14689;BME280;7432;48.728;9.154;2023-04-24T01:29:08;95556.88;;;10.75;93.62
14689;BME280;7432;48.728;9.154;2023-04-24T01:31:35;95552.03;;;10.65;94.58
14689;BME280;7432;48.728;9.154;2023-04-24T01:34:02;95547.06;;;10.63;95.51
14689;BME280;7432;48.728;9.154;2023-04-24T01:36:30;95550.81;;;10.61;95.25
14689;BME280;7432;48.728;9.154;2023-04-24T01:38:56;95543.28;;;10.59;95.35
14689;BME280;7432;48.728;9.154;2023-04-24T01:41:24;95537.69;;;10.56;96.48
14689;BME280;7432;48.728;9.154;2023-04-24T01:43:51;95543.03;;;10.54;96.66
14689;BME280;7432;48.728;9.154;2023-04-24T01:46:17;95542.59;;;10.51;96.71
14689;BME280;7432;48.728;9.154;2023-04-24T01:48:44;95533.25;;;10.50;96.31
14689;BME280;7432;48.728;9.154;2023-04-24T01:51:11;95533.72;;;10.53;95.98
14689;BME280;7432;48.728;9.154;2023-04-24T01:53:37;95535.66;;;10.51;94.60
14689;BME280;7432;48.728;9.154;2023-04-24T01:56:04;95535.66;;;10.51;95.37
14689;BME280;7432;48.728;9.154;2023-04-24T01:58:32;95531.50;;;10.50;95.84
14689;BME280;7432;48.728;9.154;2023-04-24T02:00:59;95541.78;;;10.50;96.77
14689;BME280;7432;48.728;9.154;2023-04-24T02:03:26;95541.59;;;10.52;97.09
14689;BME280;7432;48.728;9.154;2023-04-24T02:05:52;95541.19;;;10.48;96.61
14689;BME280;7432;48.728;9.154;2023-04-24T02:08:18;95552.34;;;10.55;95.61
14689;BME280;7432;48.728;9.154;2023-04-24T02:10:45;95541.44;;;10.53;96.27
14689;BME280;7432;48.728;9.154;2023-04-24T02:13:11;95549.50;;;10.50;95.80
14689;BME280;7432;48.728;9.154;2023-04-24T02:15:39;95546.38;;;10.34;96.85
14689;BME280;7432;48.728;9.154;2023-04-24T02:18:05;95554.56;;;10.44;97.62
14689;BME280;7432;48.728;9.154;2023-04-24T02:20:32;95536.41;;;10.45;96.43
14689;BME280;7432;48.728;9.154;2023-04-24T02:23:00;95535.97;;;10.42;95.82
14689;BME280;7432;48.728;9.154;2023-04-24T02:25:27;95537.69;;;10.35;96.66
14689;BME280;7432;48.728;9.154;2023-04-24T02:27:53;95530.06;;;10.27;96.55
14689;BME280;7432;48.728;9.154;2023-04-24T02:30:19;95531.59;;;10.21;97.70
14689;BME280;7432;48.728;9.154;2023-04-24T02:32:47;95535.94;;;10.21;97.49
14689;BME280;7432;48.728;9.154;2023-04-24T02:35:14;95544.00;;;10.18;96.81
14689;BME280;7432;48.728;9.154;2023-04-24T02:37:40;95543.81;;;10.19;96.66
14689;BME280;7432;48.728;9.154;2023-04-24T02:40:08;95546.84;;;10.23;97.15
14689;BME280;7432;48.728;9.154;2023-04-24T02:42:35;95546.31;;;10.27;97.28
14689;BME280;7432;48.728;9.154;2023-04-24T02:45:01;95548.78;;;10.35;97.57
14689;BME280;7432;48.728;9.154;2023-04-24T02:47:27;95549.44;;;10.44;96.46
14689;BME280;7432;48.728;9.154;2023-04-24T02:49:55;95553.84;;;10.50;95.92
14689;BME280;7432;48.728;9.154;2023-04-24T02:52:22;95559.09;;;10.56;96.64
14689;BME280;7432;48.728;9.154;2023-04-24T02:54:48;95556.25;;;10.51;97.22
14689;BME280;7432;48.728;9.154;2023-04-24T02:57:14;95548.72;;;10.50;97.51
14689;BME280;7432;48.728;9.154;2023-04-24T02:59:41;95552.09;;;10.50;97.65
14689;BME280;7432;48.728;9.154;2023-04-24T03:02:08;95550.69;;;10.48;97.72
14689;BME280;7432;48.728;9.154;2023-04-24T03:04:34;95550.06;;;10.46;98.55
14689;BME280;7432;48.728;9.154;2023-04-24T03:07:02;95536.41;;;10.45;98.26
14689;BME280;7432;48.728;9.154;2023-04-24T03:09:29;95531.25;;;10.45;98.29
14689;BME280;7432;48.728;9.154;2023-04-24T03:11:56;95520.19;;;10.30;98.57
14689;BME280;7432;48.728;9.154;2023-04-24T03:14:23;95523.16;;;10.27;98.86
14689;BME280;7432;48.728;9.154;2023-04-24T03:16:49;95530.06;;;10.27;98.56
14689;BME280;7432;48.728;9.154;2023-04-24T03:19:16;95521.91;;;10.23;99.60
14689;BME280;7432;48.728;9.154;2023-04-24T03:21:42;95526.59;;;10.20;99.13
14689;BME280;7432;48.728;9.154;2023-04-24T03:24:10;95519.69;;;10.05;99.98
14689;BME280;7432;48.728;9.154;2023-04-24T03:26:36;95512.47;;;9.94;100.00
14689;BME280;7432;48.728;9.154;2023-04-24T03:29:03;95512.28;;;9.96;100.00
14689;BME280;7432;48.728;9.154;2023-04-24T03:31:29;95515.19;;;9.93;100.00
14689;BME280;7432;48.728;9.154;2023-04-24T03:33:55;95515.19;;;9.93;100.00
14689;BME280;7432;48.728;9.154;2023-04-24T03:36:22;95518.94;;;9.90;100.00
14689;BME280;7432;48.728;9.154;2023-04-24T03:38:48;95517.97;;;9.91;100.00
14689;BME280;7432;48.728;9.154;2023-04-24T03:41:16;95521.94;;;9.94;100.00
14689;BME280;7432;48.728;9.154;2023-04-24T03:43:42;95519.28;;;9.87;100.00
14689;BME280;7432;48.728;9.154;2023-04-24T03:46:08;95515.09;;;9.86;100.00
14689;BME280;7432;48.728;9.154;2023-04-24T03:48:35;95509.72;;;9.81;100.00
14689;BME280;7432;48.728;9.154;2023-04-24T03:51:01;95502.53;;;9.77;100.00
14689;BME280;7432;48.728;9.154;2023-04-24T03:53:28;95500.88;;;9.69;100.00
14689;BME280;7432;48.728;9.154;2023-04-24T03:55:54;95512.13;;;9.68;100.00
14689;BME280;7432;48.728;9.154;2023-04-24T03:58:22;95518.22;;;9.67;100.00
14689;BME280;7432;48.728;9.154;2023-04-24T04:00:48;95521.69;;;9.60;100.00
14689;BME280;7432;48.728;9.154;2023-04-24T04:03:15;95529.84;;;9.63;100.00
14689;BME280;7432;48.728;9.154;2023-04-24T04:05:41;95524.25;;;9.60;100.00
14689;BME280;7432;48.728;9.154;2023-04-24T04:08:08;95525.34;;;9.50;100.00
14689;BME280;7432;48.728;9.154;2023-04-24T04:10:34;95531.56;;;9.56;100.00
14689;BME280;7432;48.728;9.154;2023-04-24T04:13:00;95533.03;;;9.65;100.00
14689;BME280;7432;48.728;9.154;2023-04-24T04:15:28;95533.94;;;9.72;100.00
14689;BME280;7432;48.728;9.154;2023-04-24T04:17:55;95539.09;;;9.72;100.00
14689;BME280;7432;48.728;9.154;2023-04-24T04:20:21;95541.19;;;9.69;100.00
14689;BME280;7432;48.728;9.154;2023-04-24T04:22:47;95555.47;;;9.71;100.00
14689;BME280;7432;48.728;9.154;2023-04-24T04:25:14;95555.56;;;9.78;100.00
14689;BME280;7432;48.728;9.154;2023-04-24T04:27:40;95566.97;;;9.90;100.00
14689;BME280;7432;48.728;9.154;2023-04-24T04:30:07;95606.53;;;10.03;98.99
14689;BME280;7432;48.728;9.154;2023-04-24T04:32:36;95606.06;;;10.00;99.73
14689;BME280;7432;48.728;9.154;2023-04-24T04:35:03;95620.00;;;9.76;97.01
14689;BME280;7432;48.728;9.154;2023-04-24T04:37:29;95606.34;;;9.76;96.35
14689;BME280;7432;48.728;9.154;2023-04-24T04:39:56;95619.00;;;9.63;94.96
14689;BME280;7432;48.728;9.154;2023-04-24T04:42:23;95626.34;;;9.51;94.49
14689;BME280;7432;48.728;9.154;2023-04-24T04:44:49;95611.72;;;9.51;94.15
14689;BME280;7432;48.728;9.154;2023-04-24T04:47:16;95617.75;;;9.44;95.46
14689;BME280;7432;48.728;9.154;2023-04-24T04:49:44;95624.19;;;9.40;95.28
14689;BME280;7432;48.728;9.154;2023-04-24T04:52:11;95620.75;;;9.33;95.18
14689;BME280;7432;48.728;9.154;2023-04-24T04:54:37;95624.00;;;9.27;96.73
14689;BME280;7432;48.728;9.154;2023-04-24T04:57:03;95626.84;;;9.32;95.70
14689;BME280;7432;48.728;9.154;2023-04-24T04:59:30;95632.78;;;9.32;95.71
14689;BME280;7432;48.728;9.154;2023-04-24T05:01:56;95632.16;;;9.30;95.11
14689;BME280;7432;48.728;9.154;2023-04-24T05:04:22;95630.22;;;9.32;96.76
14689;BME280;7432;48.728;9.154;2023-04-24T05:06:50;95632.81;;;9.10;98.89
14689;BME280;7432;48.728;9.154;2023-04-24T05:09:17;95641.75;;;9.14;97.62
14689;BME280;7432;48.728;9.154;2023-04-24T05:11:43;95645.41;;;9.19;96.56
14689;BME280;7432;48.728;9.154;2023-04-24T05:14:09;95646.84;;;9.22;98.00
14689;BME280;7432;48.728;9.154;2023-04-24T05:16:37;95642.50;;;9.22;97.88
14689;BME280;7432;48.728;9.154;2023-04-24T05:19:04;95651.63;;;9.25;98.71
14689;BME280;7432;48.728;9.154;2023-04-24T05:21:31;95670.97;;;9.35;98.16
14689;BME280;7432;48.728;9.154;2023-04-24T05:23:58;95674.69;;;9.33;97.53
14689;BME280;7432;48.728;9.154;2023-04-24T05:26:25;95673.81;;;9.40;97.03
14689;BME280;7432;48.728;9.154;2023-04-24T05:28:51;95670.28;;;9.41;97.43
14689;BME280;7432;48.728;9.154;2023-04-24T05:31:17;95675.16;;;9.51;95.33
14689;BME280;7432;48.728;9.154;2023-04-24T05:33:44;95680.78;;;9.54;95.51
14689;BME280;7432;48.728;9.154;2023-04-24T05:36:10;95682.47;;;9.62;94.22
14689;BME280;7432;48.728;9.154;2023-04-24T05:38:37;95688.59;;;9.61;94.31
14689;BME280;7432;48.728;9.154;2023-04-24T05:41:04;95690.75;;;9.72;93.46
14689;BME280;7432;48.728;9.154;2023-04-24T05:43:31;95693.41;;;9.64;94.84
14689;BME280;7432;48.728;9.154;2023-04-24T05:45:57;95687.47;;;9.78;94.85
14689;BME280;7432;48.728;9.154;2023-04-24T05:48:23;95700.31;;;9.78;94.75
14689;BME280;7432;48.728;9.154;2023-04-24T05:50:50;95699.66;;;9.99;92.68
14689;BME280;7432;48.728;9.154;2023-04-24T05:53:17;95706.38;;;10.00;90.32
14689;BME280;7432;48.728;9.154;2023-04-24T05:55:44;95703.72;;;9.93;92.03
14689;BME280;7432;48.728;9.154;2023-04-24T05:58:12;95714.91;;;10.00;92.46
14689;BME280;7432;48.728;9.154;2023-04-24T06:00:38;95718.81;;;9.96;92.38
14689;BME280;7432;48.728;9.154;2023-04-24T06:03:07;95719.25;;;10.00;93.30
14689;BME280;7432;48.728;9.154;2023-04-24T06:05:34;95718.13;;;10.02;90.60
14689;BME280;7432;48.728;9.154;2023-04-24T06:08:01;95719.91;;;10.17;90.89
14689;BME280;7432;48.728;9.154;2023-04-24T06:10:27;95716.13;;;10.27;92.05
14689;BME280;7432;48.728;9.154;2023-04-24T06:12:53;95715.22;;;10.49;91.39
14689;BME280;7432;48.728;9.154;2023-04-24T06:15:22;95718.31;;;11.10;91.58
14689;BME280;7432;48.728;9.154;2023-04-24T06:17:49;95723.25;;;11.68;87.33
14689;BME280;7432;48.728;9.154;2023-04-24T06:20:15;95716.34;;;12.59;84.33
14689;BME280;7432;48.728;9.154;2023-04-24T06:22:41;95726.44;;;14.14;77.26
14689;BME280;7432;48.728;9.154;2023-04-24T06:25:08;95720.53;;;16.16;69.19
14689;BME280;7432;48.728;9.154;2023-04-24T06:27:35;95728.69;;;17.88;60.36
14689;BME280;7432;48.728;9.154;2023-04-24T06:30:01;95730.44;;;20.71;52.57
14689;BME280;7432;48.728;9.154;2023-04-24T06:32:29;95744.97;;;23.13;45.38
14689;BME280;7432;48.728;9.154;2023-04-24T06:34:56;95750.31;;;25.19;41.81
14689;BME280;7432;48.728;9.154;2023-04-24T06:37:23;95744.69;;;25.90;38.55
14689;BME280;7432;48.728;9.154;2023-04-24T06:39:49;95760.06;;;26.50;37.68
14689;BME280;7432;48.728;9.154;2023-04-24T06:42:15;95750.28;;;27.27;35.82
14689;BME280;7432;48.728;9.154;2023-04-24T06:44:42;95754.81;;;27.27;35.44
14689;BME280;7432;48.728;9.154;2023-04-24T06:47:08;95745.63;;;27.43;33.98
14689;BME280;7432;48.728;9.154;2023-04-24T06:49:37;95740.31;;;28.17;35.08
14689;BME280;7432;48.728;9.154;2023-04-24T06:52:04;95757.38;;;28.62;32.74
14689;BME280;7432;48.728;9.154;2023-04-24T06:54:30;95749.06;;;28.18;33.30
14689;BME280;7432;48.728;9.154;2023-04-24T06:56:57;95741.00;;;25.86;35.42
14689;BME280;7432;48.728;9.154;2023-04-24T06:59:24;95738.16;;;23.17;39.57
14689;BME280;7432;48.728;9.154;2023-04-24T07:01:51;95744.72;;;21.45;42.43
14689;BME280;7432;48.728;9.154;2023-04-24T07:04:17;95732.72;;;21.49;43.46
14689;BME280;7432;48.728;9.154;2023-04-24T07:06:45;95742.78;;;20.92;43.86
14689;BME280;7432;48.728;9.154;2023-04-24T07:09:12;95733.19;;;19.93;46.56
14689;BME280;7432;48.728;9.154;2023-04-24T07:11:40;95740.59;;;18.88;49.60
14689;BME280;7432;48.728;9.154;2023-04-24T07:14:06;95735.00;;;17.68;51.87
14689;BME280;7432;48.728;9.154;2023-04-24T07:16:33;95732.88;;;17.17;53.86
14689;BME280;7432;48.728;9.154;2023-04-24T07:18:59;95746.13;;;16.12;56.86
14689;BME280;7432;48.728;9.154;2023-04-24T07:21:26;95744.03;;;14.89;59.79
14689;BME280;7432;48.728;9.154;2023-04-24T07:23:54;95756.31;;;14.43;64.49
14689;BME280;7432;48.728;9.154;2023-04-24T07:26:21;95755.47;;;13.57;66.71
14689;BME280;7432;48.728;9.154;2023-04-24T07:28:47;95753.38;;;13.20;66.24
14689;BME280;7432;48.728;9.154;2023-04-24T07:31:13;95756.38;;;13.17;67.01
14689;BME280;7432;48.728;9.154;2023-04-24T07:33:40;95766.50;;;13.18;66.98
14689;BME280;7432;48.728;9.154;2023-04-24T07:36:06;95756.44;;;13.43;65.70
14689;BME280;7432;48.728;9.154;2023-04-24T07:38:33;95767.84;;;14.27;64.25
14689;BME280;7432;48.728;9.154;2023-04-24T07:41:01;95766.63;;;17.06;55.51
14689;BME280;7432;48.728;9.154;2023-04-24T07:43:27;95765.94;;;19.27;48.57
14689;BME280;7432;48.728;9.154;2023-04-24T07:45:53;95780.88;;;20.17;47.03
14689;BME280;7432;48.728;9.154;2023-04-24T07:48:20;95777.25;;;21.06;45.08
14689;BME280;7432;48.728;9.154;2023-04-24T07:50:47;95782.84;;;19.93;44.98
14689;BME280;7432;48.728;9.154;2023-04-24T07:53:13;95784.66;;;18.50;48.08
14689;BME280;7432;48.728;9.154;2023-04-24T07:55:40;95790.94;;;17.30;49.93
14689;BME280;7432;48.728;9.154;2023-04-24T07:58:07;95790.97;;;15.76;50.40
14689;BME280;7432;48.728;9.154;2023-04-24T08:00:34;95792.47;;;14.95;52.92
14689;BME280;7432;48.728;9.154;2023-04-24T08:03:01;95800.13;;;14.64;53.05
14689;BME280;7432;48.728;9.154;2023-04-24T08:05:27;95806.53;;;14.35;54.62
14689;BME280;7432;48.728;9.154;2023-04-24T08:07:54;95801.13;;;14.30;54.29
14689;BME280;7432;48.728;9.154;2023-04-24T08:10:21;95806.66;;;13.75;55.08
14689;BME280;7432;48.728;9.154;2023-04-24T08:12:47;95811.22;;;13.59;58.69
14689;BME280;7432;48.728;9.154;2023-04-24T08:15:15;95814.53;;;13.06;58.17
14689;BME280;7432;48.728;9.154;2023-04-24T08:17:41;95807.03;;;13.72;58.88
14689;BME280;7432;48.728;9.154;2023-04-24T08:20:09;95806.09;;;15.35;53.83
14689;BME280;7432;48.728;9.154;2023-04-24T08:22:38;95809.81;;;15.01;53.83
14689;BME280;7432;48.728;9.154;2023-04-24T08:25:05;95827.63;;;14.65;51.88
14689;BME280;7432;48.728;9.154;2023-04-24T08:27:32;95827.28;;;15.25;49.20
14689;BME280;7432;48.728;9.154;2023-04-24T08:29:58;95820.50;;;16.81;46.53
14689;BME280;7432;48.728;9.154;2023-04-24T08:32:26;95830.38;;;18.22;43.57
14689;BME280;7432;48.728;9.154;2023-04-24T08:34:54;95825.03;;;19.57;41.42
14689;BME280;7432;48.728;9.154;2023-04-24T08:37:21;95832.34;;;20.78;38.76
14689;BME280;7432;48.728;9.154;2023-04-24T08:39:48;95828.88;;;20.39;37.85
14689;BME280;7432;48.728;9.154;2023-04-24T08:42:15;95840.06;;;20.84;37.54
14689;BME280;7432;48.728;9.154;2023-04-24T08:44:43;95822.88;;;22.23;36.66
14689;BME280;7432;48.728;9.154;2023-04-24T08:47:10;95838.41;;;22.35;34.79
14689;BME280;7432;48.728;9.154;2023-04-24T08:49:38;95837.69;;;21.43;35.90
14689;BME280;7432;48.728;9.154;2023-04-24T08:52:05;95847.03;;;21.55;35.85
14689;BME280;7432;48.728;9.154;2023-04-24T08:54:33;95843.22;;;20.53;36.91
14689;BME280;7432;48.728;9.154;2023-04-24T08:57:01;95851.41;;;19.32;39.87
14689;BME280;7432;48.728;9.154;2023-04-24T08:59:29;95845.69;;;18.95;39.41
14689;BME280;7432;48.728;9.154;2023-04-24T09:01:55;95860.28;;;19.08;40.89
14689;BME280;7432;48.728;9.154;2023-04-24T09:04:23;95855.69;;;20.46;38.62
14689;BME280;7432;48.728;9.154;2023-04-24T09:06:52;95871.03;;;23.49;35.08
14689;BME280;7432;48.728;9.154;2023-04-24T09:09:22;95858.69;;;24.93;31.82
14689;BME280;7432;48.728;9.154;2023-04-24T09:11:49;95865.56;;;23.61;33.55
14689;BME280;7432;48.728;9.154;2023-04-24T09:14:15;95860.88;;;21.12;36.18
14689;BME280;7432;48.728;9.154;2023-04-24T09:16:42;95860.44;;;19.01;39.61
14689;BME280;7432;48.728;9.154;2023-04-24T09:19:08;95861.97;;;17.55;42.34
14689;BME280;7432;48.728;9.154;2023-04-24T09:21:35;95866.28;;;18.50;40.50
14689;BME280;7432;48.728;9.154;2023-04-24T09:24:04;95869.31;;;18.35;41.05
14689;BME280;7432;48.728;9.154;2023-04-24T09:26:31;95881.66;;;16.90;43.07
14689;BME280;7432;48.728;9.154;2023-04-24T09:28:59;95870.72;;;15.94;45.60
14689;BME280;7432;48.728;9.154;2023-04-24T09:31:27;95881.22;;;15.04;46.20
14689;BME280;7432;48.728;9.154;2023-04-24T09:33:57;95879.56;;;16.49;43.75
14689;BME280;7432;48.728;9.154;2023-04-24T09:36:27;95887.69;;;19.80;38.55
14689;BME280;7432;48.728;9.154;2023-04-24T09:38:57;95885.34;;;22.26;33.89
14689;BME280;7432;48.728;9.154;2023-04-24T09:41:26;95879.50;;;21.54;33.79
14689;BME280;7432;48.728;9.154;2023-04-24T09:43:53;95884.91;;;21.26;32.62
14689;BME280;7432;48.728;9.154;2023-04-24T09:46:20;95886.38;;;22.57;31.23
14689;BME280;7432;48.728;9.154;2023-04-24T09:48:47;95895.56;;;21.19;32.87
14689;BME280;7432;48.728;9.154;2023-04-24T09:51:14;95897.66;;;19.83;35.20
14689;BME280;7432;48.728;9.154;2023-04-24T09:53:45;95889.50;;;18.10;38.38
14689;BME280;7432;48.728;9.154;2023-04-24T09:56:11;95897.84;;;17.35;39.92
14689;BME280;7432;48.728;9.154;2023-04-24T09:58:39;95893.75;;;16.22;41.17
14689;BME280;7432;48.728;9.154;2023-04-24T10:01:07;95889.97;;;15.80;43.19
14689;BME280;7432;48.728;9.154;2023-04-24T10:03:34;95906.06;;;15.51;43.09
14689;BME280;7432;48.728;9.154;2023-04-24T10:06:01;95909.50;;;15.31;44.61
14689;BME280;7432;48.728;9.154;2023-04-24T10:08:34;95921.56;;;16.46;42.34
14689;BME280;7432;48.728;9.154;2023-04-24T10:11:01;95930.53;;;18.98;37.54
14689;BME280;7432;48.728;9.154;2023-04-24T10:13:28;95931.44;;;21.57;33.71
14689;BME280;7432;48.728;9.154;2023-04-24T10:15:56;95919.13;;;22.50;30.35
14689;BME280;7432;48.728;9.154;2023-04-24T10:18:24;95931.13;;;21.15;32.02
14689;BME280;7432;48.728;9.154;2023-04-24T10:20:51;95932.97;;;23.82;30.94
14689;BME280;7432;48.728;9.154;2023-04-24T10:23:19;95932.28;;;22.28;30.26
14689;BME280;7432;48.728;9.154;2023-04-24T10:25:46;95923.88;;;20.56;32.79
14689;BME280;7432;48.728;9.154;2023-04-24T10:28:14;95920.91;;;18.98;35.23
14689;BME280;7432;48.728;9.154;2023-04-24T10:30:42;95914.81;;;20.19;33.81
14689;BME280;7432;48.728;9.154;2023-04-24T10:33:10;95930.75;;;20.45;34.18
14689;BME280;7432;48.728;9.154;2023-04-24T10:35:41;95930.47;;;19.50;34.87
14689;BME280;7432;48.728;9.154;2023-04-24T10:38:11;95930.63;;;18.68;35.54
14689;BME280;7432;48.728;9.154;2023-04-24T10:40:38;95921.47;;;17.88;37.84
14689;BME280;7432;48.728;9.154;2023-04-24T10:43:05;95926.13;;;18.15;37.22
14689;BME280;7432;48.728;9.154;2023-04-24T10:45:33;95944.44;;;18.09;38.82
14689;BME280;7432;48.728;9.154;2023-04-24T10:48:02;95933.22;;;17.17;38.70
14689;BME280;7432;48.728;9.154;2023-04-24T10:50:41;95933.84;;;16.32;41.24
14689;BME280;7432;48.728;9.154;2023-04-24T10:53:12;95936.59;;;15.42;42.20
14689;BME280;7432;48.728;9.154;2023-04-24T10:55:41;95940.28;;;15.02;43.95
14689;BME280;7432;48.728;9.154;2023-04-24T10:58:08;95932.09;;;14.65;44.82
14689;BME280;7432;48.728;9.154;2023-04-24T11:00:36;95937.25;;;14.33;45.31
14689;BME280;7432;48.728;9.154;2023-04-24T11:03:04;95945.19;;;14.31;46.82
14689;BME280;7432;48.728;9.154;2023-04-24T11:05:50;95947.56;;;14.19;45.96
14689;BME280;7432;48.728;9.154;2023-04-24T11:08:23;95949.56;;;13.70;46.99
14689;BME280;7432;48.728;9.154;2023-04-24T11:10:55;95954.00;;;13.42;48.42
14689;BME280;7432;48.728;9.154;2023-04-24T11:13:22;95952.28;;;13.21;49.55
14689;BME280;7432;48.728;9.154;2023-04-24T11:16:19;95955.81;;;13.14;50.83
14689;BME280;7432;48.728;9.154;2023-04-24T11:18:50;95962.69;;;13.06;50.46
14689;BME280;7432;48.728;9.154;2023-04-24T11:21:22;95951.75;;;13.04;50.52
14689;BME280;7432;48.728;9.154;2023-04-24T11:23:48;95953.03;;;13.15;51.37
14689;BME280;7432;48.728;9.154;2023-04-24T11:26:18;95959.97;;;13.08;51.14
14689;BME280;7432;48.728;9.154;2023-04-24T11:28:48;95959.75;;;13.37;49.50
14689;BME280;7432;48.728;9.154;2023-04-24T11:31:34;95963.75;;;13.81;47.55
14689;BME280;7432;48.728;9.154;2023-04-24T11:34:06;95963.56;;;14.36;46.63
14689;BME280;7432;48.728;9.154;2023-04-24T11:36:34;95973.56;;;15.11;46.42
14689;BME280;7432;48.728;9.154;2023-04-24T11:39:01;95975.38;;;15.04;45.22
14689;BME280;7432;48.728;9.154;2023-04-24T11:41:28;95966.97;;;15.35;45.75
14689;BME280;7432;48.728;9.154;2023-04-24T11:43:56;95977.97;;;14.84;46.72
14689;BME280;7432;48.728;9.154;2023-04-24T11:46:22;95987.88;;;13.94;49.80
14689;BME280;7432;48.728;9.154;2023-04-24T11:48:49;95986.63;;;13.43;50.45
14689;BME280;7432;48.728;9.154;2023-04-24T11:51:15;95992.41;;;13.11;50.13
14689;BME280;7432;48.728;9.154;2023-04-24T11:53:43;95988.50;;;13.21;51.01
14689;BME280;7432;48.728;9.154;2023-04-24T11:56:09;95990.94;;;13.29;49.99
14689;BME280;7432;48.728;9.154;2023-04-24T11:58:37;96001.91;;;13.72;48.30
14689;BME280;7432;48.728;9.154;2023-04-24T12:01:04;96001.13;;;14.19;47.97
14689;BME280;7432;48.728;9.154;2023-04-24T12:03:30;95995.31;;;14.84;47.11
14689;BME280;7432;48.728;9.154;2023-04-24T12:06:04;95992.91;;;15.09;45.77
14689;BME280;7432;48.728;9.154;2023-04-24T12:08:32;95990.72;;;15.25;45.94
14689;BME280;7432;48.728;9.154;2023-04-24T12:11:01;96000.88;;;15.33;44.77
14689;BME280;7432;48.728;9.154;2023-04-24T12:13:28;95993.91;;;14.81;46.19
14689;BME280;7432;48.728;9.154;2023-04-24T12:15:56;96007.31;;;14.24;47.73
14689;BME280;7432;48.728;9.154;2023-04-24T12:18:23;96003.78;;;13.85;49.40
14689;BME280;7432;48.728;9.154;2023-04-24T12:20:50;96006.81;;;13.26;51.48
14689;BME280;7432;48.728;9.154;2023-04-24T12:23:16;95999.56;;;13.15;52.72
14689;BME280;7432;48.728;9.154;2023-04-24T12:25:44;95999.88;;;13.05;51.98
14689;BME280;7432;48.728;9.154;2023-04-24T12:28:12;96002.22;;;13.22;51.23
14689;BME280;7432;48.728;9.154;2023-04-24T12:30:40;95998.69;;;13.29;49.63
14689;BME280;7432;48.728;9.154;2023-04-24T12:33:08;96013.53;;;13.48;49.85
14689;BME280;7432;48.728;9.154;2023-04-24T12:35:34;96017.22;;;13.60;49.49
14689;BME280;7432;48.728;9.154;2023-04-24T12:38:07;96008.28;;;13.70;50.28
14689;BME280;7432;48.728;9.154;2023-04-24T12:40:34;95997.81;;;13.91;49.41
14689;BME280;7432;48.728;9.154;2023-04-24T12:43:00;96007.50;;;14.16;48.90
14689;BME280;7432;48.728;9.154;2023-04-24T12:45:28;95999.94;;;14.15;48.92
14689;BME280;7432;48.728;9.154;2023-04-24T12:47:55;96011.19;;;13.94;50.74
14689;BME280;7432;48.728;9.154;2023-04-24T12:50:21;96012.81;;;13.61;51.84
14689;BME280;7432;48.728;9.154;2023-04-24T12:52:47;96008.28;;;13.07;52.83
14689;BME280;7432;48.728;9.154;2023-04-24T12:55:14;96005.19;;;12.76;52.54
14689;BME280;7432;48.728;9.154;2023-04-24T12:57:40;96008.25;;;12.44;53.84
14689;BME280;7432;48.728;9.154;2023-04-24T13:00:07;96008.88;;;12.46;55.62
14689;BME280;7432;48.728;9.154;2023-04-24T13:02:35;95998.84;;;12.36;54.68
14689;BME280;7432;48.728;9.154;2023-04-24T13:05:02;96005.19;;;12.34;55.73
14689;BME280;7432;48.728;9.154;2023-04-24T13:07:29;96007.22;;;12.38;56.72
14689;BME280;7432;48.728;9.154;2023-04-24T13:09:56;96005.53;;;12.31;57.33
14689;BME280;7432;48.728;9.154;2023-04-24T13:12:23;96017.28;;;12.33;58.47